createdAt,value
2023-05-25T00:00:15.819Z,8.18
2023-05-25T00:02:46.717Z,7.70
2023-05-25T00:05:14.548Z,9.15
2023-05-25T00:07:41.573Z,10.57
2023-05-25T00:10:09.281Z,9.80
2023-05-25T00:12:37.961Z,6.78
2023-05-25T00:15:07.021Z,7.68
2023-05-25T00:17:34.155Z,8.70
2023-05-25T00:20:11.023Z,7.78
2023-05-25T00:22:38.490Z,7.05
2023-05-25T00:25:06.599Z,6.97
2023-05-25T00:27:33.459Z,7.28
2023-05-25T00:30:00.671Z,8.13
2023-05-25T00:32:27.825Z,8.18
2023-05-25T00:34:55.458Z,6.72
2023-05-25T00:37:22.571Z,7.22
2023-05-25T00:39:49.413Z,7.70
2023-05-25T00:42:16.630Z,8.13
2023-05-25T00:44:43.640Z,10.70
2023-05-25T00:47:11.991Z,7.75
2023-05-25T00:49:39.037Z,7.93
2023-05-25T00:52:06.479Z,9.60
2023-05-25T00:54:35.498Z,7.25
2023-05-25T00:57:04.505Z,9.15
2023-05-25T00:59:44.716Z,9.73
2023-05-25T01:02:16.547Z,9.40
2023-05-25T01:04:47.216Z,9.02
2023-05-25T01:07:18.618Z,9.50
2023-05-25T01:09:46.999Z,9.32
2023-05-25T01:12:16.500Z,9.25
2023-05-25T01:14:43.924Z,7.95
2023-05-25T01:17:11.181Z,8.88
2023-05-25T01:19:41.234Z,9.43
2023-05-25T01:22:32.777Z,9.13
2023-05-25T01:25:04.007Z,10.23
2023-05-25T01:27:51.877Z,9.20
2023-05-25T01:30:21.668Z,9.75
2023-05-25T01:35:20.141Z,10.25
2023-05-25T01:37:47.961Z,12.27
2023-05-25T01:40:15.858Z,12.05
2023-05-25T01:42:42.979Z,10.68
2023-05-25T01:45:11.069Z,12.27
2023-05-25T01:47:49.658Z,10.95
2023-05-25T01:50:23.885Z,10.57
2023-05-25T01:53:15.065Z,10.63
2023-05-25T01:55:55.169Z,10.95
2023-05-25T01:58:23.353Z,12.32
2023-05-25T02:00:51.952Z,11.30
2023-05-25T02:03:20.262Z,11.23
2023-05-25T02:05:47.689Z,10.02
2023-05-25T02:08:14.616Z,11.70
2023-05-25T02:10:41.457Z,12.00
2023-05-25T02:13:08.357Z,12.00
2023-05-25T02:15:35.318Z,12.10
2023-05-25T02:18:02.255Z,11.05
2023-05-25T02:20:29.228Z,11.75
2023-05-25T02:22:56.248Z,12.13
2023-05-25T02:25:23.301Z,12.95
2023-05-25T02:27:50.766Z,12.63
2023-05-25T02:30:17.829Z,12.93
2023-05-25T02:32:44.978Z,12.60
2023-05-25T02:35:12.204Z,14.38
2023-05-25T02:37:39.485Z,13.13
2023-05-25T02:40:06.958Z,12.02
2023-05-25T02:42:33.948Z,13.70
2023-05-25T02:45:00.997Z,14.82
2023-05-25T02:47:27.995Z,15.27
2023-05-25T02:49:55.026Z,15.73
2023-05-25T02:52:22.876Z,14.32
2023-05-25T02:54:49.844Z,13.80
2023-05-25T02:57:17.123Z,16.58
2023-05-25T02:59:44.067Z,16.12
2023-05-25T03:02:11.012Z,15.88
2023-05-25T03:04:39.214Z,15.75
2023-05-25T03:07:06.301Z,13.57
2023-05-25T03:09:33.352Z,16.80
2023-05-25T03:12:00.319Z,14.40
2023-05-25T03:14:27.921Z,20.58
2023-05-25T03:16:55.062Z,17.80
2023-05-25T03:19:22.235Z,14.60
2023-05-25T03:21:49.208Z,17.98
2023-05-25T03:24:16.227Z,17.40
2023-05-25T03:26:43.201Z,17.80
2023-05-25T03:29:10.510Z,19.15
2023-05-25T03:31:37.501Z,16.23
2023-05-25T03:34:04.693Z,19.37
2023-05-25T03:36:32.995Z,18.65
2023-05-25T03:39:00.349Z,19.37
2023-05-25T03:41:27.355Z,16.83
2023-05-25T03:43:54.276Z,16.25
2023-05-25T03:46:21.330Z,18.17
2023-05-25T03:48:48.256Z,15.70
2023-05-25T03:51:15.189Z,16.67
2023-05-25T03:53:42.085Z,15.35
2023-05-25T03:56:08.988Z,17.62
2023-05-25T03:58:35.925Z,16.90
2023-05-25T04:01:05.091Z,15.00
2023-05-25T04:03:33.356Z,18.75
2023-05-25T04:06:00.825Z,19.02
2023-05-25T04:08:29.033Z,17.10
2023-05-25T04:10:56.527Z,14.10
2023-05-25T04:13:23.671Z,16.73
2023-05-25T04:15:51.094Z,14.93
2023-05-25T04:18:18.042Z,16.58
2023-05-25T04:20:46.922Z,14.15
2023-05-25T04:23:13.827Z,15.20
2023-05-25T04:25:42.554Z,17.12
2023-05-25T04:28:09.546Z,16.37
2023-05-25T04:30:36.470Z,13.43
2023-05-25T04:33:03.818Z,14.38
2023-05-25T04:35:31.938Z,15.15
2023-05-25T04:38:03.110Z,17.55
2023-05-25T04:40:30.354Z,14.57
2023-05-25T04:42:57.441Z,13.65
2023-05-25T04:45:24.413Z,12.88
2023-05-25T04:47:51.488Z,16.15
2023-05-25T04:50:18.694Z,13.60
2023-05-25T04:52:45.803Z,14.73
2023-05-25T04:55:12.766Z,14.38
2023-05-25T04:57:39.879Z,13.15
2023-05-25T05:00:09.984Z,12.27
2023-05-25T05:02:37.450Z,11.27
2023-05-25T05:05:04.627Z,12.93
2023-05-25T05:07:31.900Z,12.07
2023-05-25T05:09:58.842Z,16.85
2023-05-25T05:12:25.650Z,13.25
2023-05-25T05:14:53.374Z,13.27
2023-05-25T05:17:20.518Z,11.95
2023-05-25T05:19:47.517Z,13.77
2023-05-25T05:22:16.222Z,12.48
2023-05-25T05:24:43.250Z,11.60
2023-05-25T05:27:10.947Z,16.17
2023-05-25T05:29:37.945Z,13.30
2023-05-25T05:32:05.180Z,10.90
2023-05-25T05:34:32.241Z,16.48
2023-05-25T05:37:00.437Z,13.88
2023-05-25T05:39:28.306Z,13.80
2023-05-25T05:41:55.959Z,15.43
2023-05-25T05:44:25.246Z,14.38
2023-05-25T05:47:01.245Z,11.10
2023-05-25T05:49:29.679Z,10.68
2023-05-25T05:51:57.089Z,12.43
2023-05-25T05:54:24.257Z,10.50
2023-05-25T05:56:51.827Z,12.73
2023-05-25T05:59:18.812Z,11.70
2023-05-25T06:01:45.864Z,14.87
2023-05-25T06:04:13.461Z,12.77
2023-05-25T06:06:42.308Z,11.43
2023-05-25T06:09:10.276Z,10.03
2023-05-25T06:11:40.314Z,9.32
2023-05-25T06:14:07.325Z,19.55
2023-05-25T06:16:34.379Z,14.80
2023-05-25T06:19:01.576Z,11.35
2023-05-25T06:21:28.642Z,11.82
2023-05-25T06:23:58.022Z,11.98
2023-05-25T06:26:25.200Z,10.13
2023-05-25T06:28:52.350Z,15.00
2023-05-25T06:31:19.597Z,9.52
2023-05-25T06:33:46.776Z,10.95
2023-05-25T06:36:15.755Z,13.88
2023-05-25T06:38:43.305Z,8.70
2023-05-25T06:41:13.027Z,10.95
2023-05-25T06:43:40.106Z,11.12
2023-05-25T06:46:07.182Z,10.57
2023-05-25T06:48:34.191Z,9.00
2023-05-25T06:51:01.356Z,10.73
2023-05-25T06:53:28.362Z,9.85
2023-05-25T06:55:55.348Z,8.82
2023-05-25T06:58:22.340Z,11.75
2023-05-25T07:00:49.426Z,8.90
2023-05-25T07:03:16.937Z,11.40
2023-05-25T07:05:44.459Z,11.93
2023-05-25T07:08:11.711Z,11.68
2023-05-25T07:10:38.716Z,10.65
2023-05-25T07:13:05.669Z,12.65
2023-05-25T07:15:32.725Z,9.85
2023-05-25T07:17:59.742Z,10.55
2023-05-25T07:20:27.691Z,9.32
2023-05-25T07:22:54.930Z,8.65
2023-05-25T07:25:21.923Z,9.82
2023-05-25T07:27:55.329Z,9.23
2023-05-25T07:30:22.724Z,9.07
2023-05-25T07:32:49.736Z,12.80
2023-05-25T07:35:16.741Z,9.20
2023-05-25T07:37:43.758Z,9.30
2023-05-25T07:40:11.258Z,9.68
2023-05-25T07:42:38.209Z,8.90
2023-05-25T07:45:05.929Z,9.60
2023-05-25T07:47:32.885Z,9.80
2023-05-25T07:49:59.978Z,9.05
2023-05-25T07:52:27.269Z,11.07
2023-05-25T07:54:54.250Z,8.43
2023-05-25T07:57:22.036Z,9.77
2023-05-25T07:59:49.006Z,9.55
2023-05-25T08:02:16.231Z,11.38
2023-05-25T08:04:43.359Z,8.43
2023-05-25T08:07:10.565Z,10.57
2023-05-25T08:09:37.784Z,11.45
2023-05-25T08:12:26.986Z,9.70
2023-05-25T08:14:52.216Z,13.77
2023-05-25T08:17:19.263Z,9.85
2023-05-25T08:19:46.656Z,9.82
2023-05-25T08:22:13.871Z,12.10
2023-05-25T08:24:41.530Z,10.82
2023-05-25T08:27:08.522Z,9.82
2023-05-25T08:29:35.513Z,8.95
2023-05-25T08:32:02.539Z,10.05
2023-05-25T08:34:29.907Z,10.50
2023-05-25T08:36:58.243Z,14.73
2023-05-25T08:39:25.274Z,9.65
2023-05-25T08:41:52.382Z,12.68
2023-05-25T08:44:19.912Z,10.68
2023-05-25T08:46:49.815Z,7.72
2023-05-25T08:49:17.426Z,9.75
2023-05-25T08:51:55.156Z,9.18
2023-05-25T08:54:32.140Z,8.55
2023-05-25T08:57:11.822Z,7.12
2023-05-25T08:59:56.632Z,9.63
2023-05-25T09:02:39.158Z,8.68
2023-05-25T09:05:07.521Z,7.72
2023-05-25T09:07:35.262Z,10.93
2023-05-25T09:10:03.825Z,8.45
2023-05-25T09:12:31.809Z,8.23
2023-05-25T09:14:59.337Z,29.87
2023-05-25T09:17:27.134Z,10.02
2023-05-25T09:19:55.105Z,7.62
2023-05-25T09:22:22.246Z,9.20
2023-05-25T09:24:49.614Z,16.25
2023-05-25T09:27:19.395Z,10.52
2023-05-25T09:29:50.722Z,11.07
2023-05-25T09:32:19.223Z,9.52
2023-05-25T09:34:47.473Z,10.95
2023-05-25T09:37:17.554Z,10.00
2023-05-25T09:39:45.764Z,9.05
2023-05-25T09:42:13.121Z,10.18
2023-05-25T09:44:42.978Z,9.35
2023-05-25T09:47:10.451Z,9.15
2023-05-25T09:49:37.632Z,8.82
2023-05-25T09:52:04.918Z,11.90
2023-05-25T09:54:31.926Z,8.65
2023-05-25T09:57:03.279Z,7.97
2023-05-25T09:59:30.791Z,8.73
2023-05-25T10:01:58.961Z,8.95
2023-05-25T10:04:26.198Z,8.70
2023-05-25T10:06:54.053Z,9.18
2023-05-25T10:09:21.921Z,13.82
2023-05-25T10:11:52.183Z,11.73
2023-05-25T10:14:27.998Z,12.32
2023-05-25T10:16:58.769Z,9.32
2023-05-25T10:19:33.865Z,8.68
2023-05-25T10:22:22.283Z,10.60
2023-05-25T10:24:57.798Z,7.27
2023-05-25T10:27:30.105Z,13.85
2023-05-25T10:30:00.253Z,10.75
2023-05-25T10:32:28.572Z,10.10
2023-05-25T10:34:57.804Z,6.72
2023-05-25T10:39:56.867Z,8.15
2023-05-25T10:42:24.273Z,7.37
2023-05-25T10:44:51.247Z,8.75
2023-05-25T10:47:19.216Z,7.53
2023-05-25T10:49:59.207Z,7.68
2023-05-25T10:52:31.007Z,8.98
2023-05-25T10:55:02.434Z,13.77
2023-05-25T10:57:29.636Z,9.95
2023-05-25T11:00:02.534Z,10.30
2023-05-25T11:02:30.362Z,10.05
2023-05-25T11:05:26.559Z,8.75
2023-05-25T11:07:55.524Z,8.80
2023-05-25T11:10:50.627Z,9.63
2023-05-25T11:13:41.428Z,7.82
2023-05-25T11:16:27.885Z,7.18
2023-05-25T11:19:00.252Z,9.63
2023-05-25T11:21:30.648Z,7.75
2023-05-25T11:23:59.434Z,11.80
2023-05-25T11:26:29.989Z,9.07
2023-05-25T11:29:02.228Z,10.43
2023-05-25T11:31:37.098Z,9.68
2023-05-25T11:34:06.419Z,8.18
2023-05-25T11:36:36.449Z,9.43
2023-05-25T11:39:11.632Z,9.52
2023-05-25T11:41:56.322Z,9.10
2023-05-25T11:44:31.434Z,7.47
2023-05-25T11:47:02.374Z,8.00
2023-05-25T11:49:29.621Z,9.02
2023-05-25T11:52:00.276Z,7.72
2023-05-25T11:54:28.761Z,8.75
2023-05-25T11:56:59.689Z,8.57
2023-05-25T11:59:29.646Z,8.25
2023-05-25T12:02:03.581Z,8.85
2023-05-25T12:04:33.169Z,12.40
2023-05-25T12:07:08.219Z,8.75
2023-05-25T12:09:36.996Z,7.28
2023-05-25T12:12:05.158Z,8.05
2023-05-25T12:14:35.177Z,8.15
2023-05-25T12:17:02.387Z,9.43
2023-05-25T12:19:29.664Z,9.75
2023-05-25T12:21:56.959Z,10.95
2023-05-25T12:24:25.092Z,8.68
2023-05-25T12:27:02.098Z,7.65
2023-05-25T12:29:29.457Z,11.63
2023-05-25T12:32:06.967Z,8.50
2023-05-25T12:34:34.857Z,11.27
2023-05-25T12:37:01.871Z,8.80
2023-05-25T12:39:31.584Z,8.75
2023-05-25T12:42:00.165Z,7.87
2023-05-25T12:44:31.684Z,7.53
2023-05-25T12:47:14.378Z,8.48
2023-05-25T12:49:45.993Z,8.85
2023-05-25T12:52:33.113Z,6.95
2023-05-25T12:55:18.786Z,7.22
2023-05-25T12:57:47.396Z,7.62
2023-05-25T13:00:14.616Z,7.62
2023-05-25T13:02:49.617Z,6.82
2023-05-25T13:05:21.734Z,7.70
2023-05-25T13:07:49.121Z,7.68
2023-05-25T13:10:19.967Z,8.32
2023-05-25T13:12:48.114Z,10.82
2023-05-25T13:15:17.915Z,10.32
2023-05-25T13:17:45.377Z,9.85
2023-05-25T13:20:14.543Z,7.22
2023-05-25T13:22:45.984Z,9.90
2023-05-25T13:25:14.880Z,7.95
2023-05-25T13:27:47.088Z,7.57
2023-05-25T13:30:14.748Z,6.95
2023-05-25T13:32:46.514Z,9.27
2023-05-25T13:35:38.273Z,7.20
2023-05-25T13:38:05.374Z,5.80
2023-05-25T13:40:32.541Z,9.05
2023-05-25T13:42:59.553Z,5.45
2023-05-25T13:45:26.515Z,7.47
2023-05-25T13:47:53.572Z,10.25
2023-05-25T13:50:20.590Z,16.70
2023-05-25T13:52:47.577Z,7.30
2023-05-25T13:55:14.600Z,7.82
2023-05-25T13:57:41.617Z,9.80
2023-05-25T14:00:09.725Z,7.35
2023-05-25T14:02:37.587Z,7.82
2023-05-25T14:05:05.240Z,5.57
2023-05-25T14:07:32.967Z,8.45
2023-05-25T14:10:00.358Z,6.22
2023-05-25T14:12:27.837Z,7.32
2023-05-25T14:14:54.948Z,8.52
2023-05-25T14:17:21.991Z,5.95
2023-05-25T14:19:49.072Z,10.15
2023-05-25T14:22:16.035Z,7.07
2023-05-25T14:24:43.080Z,8.30
2023-05-25T14:27:10.117Z,8.68
2023-05-25T14:29:37.200Z,6.75
2023-05-25T14:32:04.549Z,9.73
2023-05-25T14:34:31.610Z,6.45
2023-05-25T14:36:58.634Z,12.48
2023-05-25T14:39:26.032Z,5.70
2023-05-25T14:41:53.039Z,8.68
2023-05-25T14:44:20.000Z,7.78
2023-05-25T14:46:47.106Z,7.62
2023-05-25T14:49:14.219Z,8.40
2023-05-25T14:51:41.176Z,5.80
2023-05-25T14:54:08.188Z,6.57
2023-05-25T14:56:35.391Z,8.07
2023-05-25T14:59:02.549Z,8.00
2023-05-25T15:01:29.771Z,7.22
2023-05-25T15:03:57.448Z,7.22
2023-05-25T15:06:24.650Z,7.55
2023-05-25T15:08:51.850Z,8.88
2023-05-25T15:11:18.900Z,7.43
2023-05-25T15:13:46.218Z,5.90
2023-05-25T15:16:17.431Z,6.45
2023-05-25T15:18:44.973Z,10.43
2023-05-25T15:21:12.046Z,7.85
2023-05-25T15:23:39.005Z,6.57
2023-05-25T15:26:07.961Z,7.75
2023-05-25T15:28:35.316Z,8.95
2023-05-25T15:31:03.331Z,6.68
2023-05-25T15:33:48.507Z,6.72
2023-05-25T15:36:18.951Z,7.40
2023-05-25T15:38:49.469Z,7.72
2023-05-25T15:41:17.759Z,7.30
2023-05-25T15:43:58.748Z,7.35
2023-05-25T15:46:26.205Z,7.37
2023-05-25T15:48:53.727Z,6.65
2023-05-25T15:51:21.548Z,7.07
2023-05-25T15:53:48.760Z,7.45
2023-05-25T15:56:16.006Z,7.07
2023-05-25T15:58:45.453Z,7.55
2023-05-25T16:03:43.234Z,7.37
2023-05-25T16:06:10.732Z,6.85
2023-05-25T16:08:37.670Z,5.30
2023-05-25T16:11:04.858Z,7.15
2023-05-25T16:13:31.839Z,8.25
2023-05-25T16:15:58.871Z,8.10
2023-05-25T16:18:26.069Z,8.85
2023-05-25T16:20:56.603Z,6.75
2023-05-25T16:23:24.168Z,7.20
2023-05-25T16:25:51.307Z,8.38
2023-05-25T16:28:18.541Z,10.00
2023-05-25T16:30:45.696Z,8.55
2023-05-25T16:33:12.757Z,7.37
2023-05-25T16:35:39.865Z,7.22
2023-05-25T16:38:06.863Z,7.82
2023-05-25T16:40:33.870Z,18.40
2023-05-25T16:43:00.883Z,9.98
2023-05-25T16:45:27.978Z,8.75
2023-05-25T16:47:54.977Z,10.15
2023-05-25T16:50:22.040Z,8.65
2023-05-25T16:52:48.922Z,6.87
2023-05-25T16:55:16.566Z,6.37
2023-05-25T16:57:43.623Z,8.45
2023-05-25T17:00:11.762Z,7.25
2023-05-25T17:02:38.888Z,7.22
2023-05-25T17:05:07.000Z,7.30
2023-05-25T17:07:34.927Z,7.05
2023-05-25T17:10:02.051Z,7.75
2023-05-25T17:12:29.110Z,7.65
2023-05-25T17:14:56.064Z,7.70
2023-05-25T17:17:23.286Z,9.90
2023-05-25T17:19:50.337Z,6.22
2023-05-25T17:22:17.425Z,6.53
2023-05-25T17:24:44.383Z,6.37
2023-05-25T17:27:11.433Z,6.70
2023-05-25T17:29:38.430Z,9.18
2023-05-25T17:32:05.854Z,6.43
2023-05-25T17:34:33.041Z,8.23
2023-05-25T17:37:00.005Z,9.57
2023-05-25T17:39:26.925Z,7.95
2023-05-25T17:41:53.924Z,7.95
2023-05-25T17:44:21.072Z,8.88
2023-05-25T17:46:47.994Z,9.07
2023-05-25T17:49:14.948Z,7.93
2023-05-25T17:51:41.959Z,8.07
2023-05-25T17:54:09.280Z,8.38
2023-05-25T17:56:36.407Z,9.02
2023-05-25T17:59:03.798Z,6.50
2023-05-25T18:01:30.746Z,6.68
2023-05-25T18:03:58.067Z,7.93
2023-05-25T18:06:26.683Z,7.93
2023-05-25T18:08:55.805Z,9.40
2023-05-25T18:11:23.572Z,7.97
2023-05-25T18:13:51.128Z,7.57
2023-05-25T18:16:18.124Z,9.07
2023-05-25T18:18:45.109Z,14.15
2023-05-25T18:21:12.076Z,10.35
2023-05-25T18:23:39.107Z,8.35
2023-05-25T18:26:06.557Z,9.40
2023-05-25T18:28:33.556Z,8.20
2023-05-25T18:31:00.488Z,9.10
2023-05-25T18:33:27.545Z,9.20
2023-05-25T18:35:54.624Z,10.13
2023-05-25T18:38:21.596Z,7.80
2023-05-25T18:40:48.570Z,9.05
2023-05-25T18:43:15.563Z,12.20
2023-05-25T18:45:42.662Z,7.72
2023-05-25T18:48:10.392Z,6.78
2023-05-25T18:50:37.854Z,8.43
2023-05-25T18:53:07.823Z,8.93
2023-05-25T18:55:35.004Z,6.55
2023-05-25T18:58:02.016Z,8.15
2023-05-25T19:00:28.951Z,7.82
2023-05-25T19:02:57.463Z,8.90
2023-05-25T19:05:25.048Z,9.02
2023-05-25T19:07:59.301Z,7.82
2023-05-25T19:10:27.609Z,10.73
2023-05-25T19:12:54.723Z,8.88
2023-05-25T19:15:21.829Z,7.50
2023-05-25T19:17:48.939Z,13.43
2023-05-25T19:20:16.189Z,9.60
2023-05-25T19:22:43.625Z,8.82
2023-05-25T19:25:10.817Z,8.60
2023-05-25T19:27:37.861Z,8.77
2023-05-25T19:30:05.209Z,9.23
2023-05-25T19:32:32.595Z,8.30
2023-05-25T19:34:59.675Z,7.60
2023-05-25T19:37:26.922Z,9.27
2023-05-25T19:39:54.118Z,9.15
2023-05-25T19:42:21.064Z,12.40
2023-05-25T19:44:48.026Z,10.00
2023-05-25T19:47:15.062Z,9.57
2023-05-25T19:49:42.183Z,8.98
2023-05-25T19:52:09.121Z,7.12
2023-05-25T19:54:36.197Z,7.12
2023-05-25T19:57:03.225Z,7.75
2023-05-25T19:59:31.559Z,10.63
2023-05-25T20:01:58.728Z,10.65
2023-05-25T20:04:25.976Z,9.63
2023-05-25T20:06:53.940Z,8.43
2023-05-25T20:09:30.065Z,6.97
2023-05-25T20:11:58.764Z,7.00
2023-05-25T20:14:26.132Z,8.73
2023-05-25T20:16:54.603Z,6.10
2023-05-25T20:19:24.183Z,10.85
2023-05-25T20:24:18.683Z,10.20
2023-05-25T20:26:45.651Z,6.85
2023-05-25T20:29:12.591Z,7.47
2023-05-25T20:31:40.598Z,9.63
2023-05-25T20:34:07.626Z,11.15
2023-05-25T20:36:34.568Z,8.57
2023-05-25T20:39:03.288Z,7.30
2023-05-25T20:41:30.306Z,8.27
2023-05-25T20:43:57.264Z,9.93
2023-05-25T20:46:24.340Z,7.87
2023-05-25T20:48:52.213Z,9.02
2023-05-25T20:51:19.407Z,9.95
2023-05-25T20:53:46.473Z,10.65
2023-05-25T20:56:13.358Z,10.45
2023-05-25T20:58:41.128Z,10.98
2023-05-25T21:01:08.600Z,11.35
2023-05-25T21:03:35.633Z,8.20
2023-05-25T21:06:02.871Z,7.95
2023-05-25T21:08:29.904Z,9.55
2023-05-25T21:10:56.796Z,8.80
2023-05-25T21:13:23.766Z,9.27
2023-05-25T21:15:51.021Z,9.30
2023-05-25T21:18:18.072Z,6.90
2023-05-25T21:20:45.080Z,12.25
2023-05-25T21:23:12.144Z,8.48
2023-05-25T21:25:39.086Z,10.07
2023-05-25T21:28:07.096Z,9.02
2023-05-25T21:30:34.063Z,9.30
2023-05-25T21:33:01.065Z,10.90
2023-05-25T21:35:28.084Z,9.13
2023-05-25T21:37:55.061Z,11.27
2023-05-25T21:40:21.956Z,9.80
2023-05-25T21:42:51.081Z,7.93
2023-05-25T21:45:18.372Z,9.73
2023-05-25T21:47:45.424Z,9.13
2023-05-25T21:50:12.391Z,9.10
2023-05-25T21:52:39.432Z,8.77
2023-05-25T21:55:06.968Z,10.50
2023-05-25T21:57:33.883Z,12.40
2023-05-25T22:00:00.886Z,9.18
2023-05-25T22:02:28.063Z,9.55
2023-05-25T22:04:55.061Z,10.95
2023-05-25T22:07:22.244Z,8.25
2023-05-25T22:09:49.160Z,9.98
2023-05-25T22:12:16.132Z,8.15
2023-05-25T22:14:43.105Z,9.18
2023-05-25T22:17:10.297Z,9.75
2023-05-25T22:19:37.317Z,8.68
2023-05-25T22:22:04.520Z,10.80
2023-05-25T22:24:31.660Z,9.60
2023-05-25T22:26:58.661Z,11.50
2023-05-25T22:29:26.103Z,10.23
2023-05-25T22:31:53.041Z,9.38
2023-05-25T22:34:20.055Z,11.10
2023-05-25T22:36:47.024Z,11.65
2023-05-25T22:39:14.146Z,9.50
2023-05-25T22:41:41.256Z,11.07
2023-05-25T22:44:08.238Z,9.40
2023-05-25T22:46:35.174Z,10.27
2023-05-25T22:49:02.300Z,10.85
2023-05-25T22:51:29.360Z,10.27
2023-05-25T22:53:56.270Z,12.07
2023-05-25T22:56:23.255Z,11.93
2023-05-25T22:58:50.220Z,10.02
2023-05-25T23:01:17.227Z,9.20
2023-05-25T23:03:44.370Z,17.35
2023-05-25T23:06:11.451Z,14.52
2023-05-25T23:08:38.420Z,9.93
2023-05-25T23:11:05.371Z,9.48
2023-05-25T23:13:32.331Z,10.65
2023-05-25T23:15:59.777Z,9.32
2023-05-25T23:18:26.994Z,12.13
2023-05-25T23:20:53.961Z,12.95
2023-05-25T23:23:20.952Z,9.75
2023-05-25T23:25:47.842Z,11.63
2023-05-25T23:28:14.833Z,10.48
2023-05-25T23:30:41.802Z,12.80
2023-05-25T23:33:08.822Z,13.20
2023-05-25T23:35:36.071Z,9.82
2023-05-25T23:38:03.006Z,13.65
2023-05-25T23:40:30.032Z,12.00
2023-05-25T23:42:57.025Z,11.65
2023-05-25T23:45:23.951Z,12.00
2023-05-25T23:47:51.008Z,11.75
2023-05-25T23:50:18.045Z,10.45
2023-05-25T23:52:46.281Z,10.95
2023-05-25T23:55:14.067Z,10.15
2023-05-25T23:57:41.296Z,9.63
